Time;durP1;ratioP1;P1;durP2;ratioP2;P2;SDS_P1;SDS_P2;PMS_P1;PMS_P2;Temp;Humidity;BMP_temperature;BMP_pressure;BME280_temperature;BME280_humidity;BME280_pressure;Samples;Min_cycle;Max_cycle;Signal;HPM_P1;HPM_P2
2023/07/19 00:00:06;;;;;;;13.18;2.90;;;;;;;23.73;63.03;97825.03;4365223;32;20148;-79
2023/07/19 00:02:33;;;;;;;9.80;2.25;;;;;;;23.64;62.81;97824.16;4363935;32;20094;-79
2023/07/19 00:05:00;;;;;;;10.52;2.33;;;;;;;23.66;63.07;97835.34;4364817;32;20099;-79
2023/07/19 00:07:26;;;;;;;11.80;2.30;;;;;;;23.62;63.02;97842.75;4365081;32;20150;-79
2023/07/19 00:09:53;;;;;;;10.05;2.40;;;;;;;23.76;62.60;97828.19;4365121;32;20137;-79
2023/07/19 00:12:20;;;;;;;12.23;2.85;;;;;;;23.90;62.40;97837.34;4364662;32;20087;-79
2023/07/19 00:14:47;;;;;;;12.40;2.45;;;;;;;23.85;62.70;97832.53;4364963;32;20094;-79
2023/07/19 00:17:14;;;;;;;12.18;2.60;;;;;;;23.77;63.25;97831.66;4365008;32;20111;-79
2023/07/19 00:19:41;;;;;;;11.32;2.35;;;;;;;23.71;63.75;97825.16;4364711;32;20153;-79
2023/07/19 00:22:08;;;;;;;12.50;2.30;;;;;;;23.50;64.91;97803.56;4364985;32;20109;-79
2023/07/19 00:24:36;;;;;;;9.20;2.33;;;;;;;23.44;65.34;97804.22;4365099;32;20150;-79
2023/07/19 00:27:03;;;;;;;10.32;2.65;;;;;;;23.76;64.13;97801.84;4364762;32;20114;-79
2023/07/19 00:29:30;;;;;;;9.80;2.70;;;;;;;23.62;64.61;97799.78;4365027;32;20092;-79
2023/07/19 00:31:57;;;;;;;10.93;2.60;;;;;;;23.83;64.36;97804.69;4364937;32;20157;-79
2023/07/19 00:34:23;;;;;;;10.57;2.40;;;;;;;23.91;63.87;97812.63;4364524;32;20442;-79
2023/07/19 00:36:50;;;;;;;11.35;2.45;;;;;;;23.86;63.88;97812.28;4364992;32;20106;-79
2023/07/19 00:39:17;;;;;;;10.10;2.28;;;;;;;23.62;65.25;97805.87;4364432;32;20161;-79
2023/07/19 00:41:44;;;;;;;9.13;2.50;;;;;;;23.51;66.41;97795.56;4364868;32;20087;-79
2023/07/19 00:44:11;;;;;;;9.43;2.15;;;;;;;23.40;66.90;97780.00;4364846;32;20115;-79
2023/07/19 00:46:39;;;;;;;11.65;2.70;;;;;;;23.30;67.89;97790.59;4364548;32;20109;-79
2023/07/19 00:49:06;;;;;;;12.20;3.03;;;;;;;23.64;66.47;97793.38;4364770;32;20518;-79
2023/07/19 00:51:33;;;;;;;13.57;2.95;;;;;;;23.78;65.95;97797.25;4363604;32;20107;-79
2023/07/19 00:54:00;;;;;;;10.55;2.70;;;;;;;23.40;67.41;97785.25;4364359;32;20095;-79
2023/07/19 00:56:27;;;;;;;8.85;2.22;;;;;;;23.51;67.26;97800.00;4364763;32;20161;-79
2023/07/19 00:58:55;;;;;;;9.20;2.30;;;;;;;23.62;66.09;97823.47;4364685;32;20150;-79
2023/07/19 01:01:22;;;;;;;12.18;2.67;;;;;;;23.69;66.48;97811.34;4364339;32;20101;-79
2023/07/19 01:03:49;;;;;;;8.95;2.47;;;;;;;23.45;66.96;97782.97;4364648;32;20161;-79
2023/07/19 01:06:17;;;;;;;11.95;2.75;;;;;;;23.79;66.66;97769.91;4364351;32;20134;-79
2023/07/19 01:08:44;;;;;;;8.75;2.30;;;;;;;23.80;65.54;97784.75;4362895;32;20170;-79
2023/07/19 01:11:11;;;;;;;12.32;2.87;;;;;;;24.16;63.89;97800.44;4364355;32;20074;-79
2023/07/19 01:13:49;;;;;;;10.63;2.40;;;;;;;24.23;63.27;97807.56;4364454;32;20110;-80
2023/07/19 01:16:17;;;;;;;13.05;2.92;;;;;;;23.76;64.81;97793.13;4363160;32;20154;-79
2023/07/19 01:18:43;;;;;;;8.55;2.47;;;;;;;23.94;64.52;97801.81;4364320;32;20087;-79
2023/07/19 01:21:10;;;;;;;9.90;2.53;;;;;;;24.03;64.18;97807.94;4364168;32;20091;-79
2023/07/19 01:23:50;;;;;;;12.25;2.72;;;;;;;24.08;63.60;97822.31;4364549;32;20090;-79
2023/07/19 01:26:18;;;;;;;8.90;2.40;;;;;;;24.09;64.05;97837.13;4363324;32;20496;-79
2023/07/19 01:28:45;;;;;;;10.00;2.70;;;;;;;23.66;66.60;97848.53;4362748;32;20113;-79
2023/07/19 01:31:14;;;;;;;9.50;2.50;;;;;;;23.31;68.05;97838.81;4364327;32;20157;-79
2023/07/19 01:33:41;;;;;;;9.90;2.58;;;;;;;23.11;69.20;97842.56;4362994;32;20111;-79
2023/07/19 01:36:08;;;;;;;8.48;2.65;;;;;;;23.00;70.09;97783.09;4363996;32;20162;-79
2023/07/19 01:38:35;;;;;;;9.63;2.40;;;;;;;23.11;69.97;97780.22;4363022;32;20099;-79
2023/07/19 01:41:02;;;;;;;13.15;3.05;;;;;;;23.58;67.89;97795.75;4364227;32;20126;-79
2023/07/19 01:43:29;;;;;;;10.55;2.60;;;;;;;23.33;68.48;97800.00;4363915;32;20145;-79
2023/07/19 01:45:58;;;;;;;10.45;2.65;;;;;;;23.47;68.34;97775.75;4364138;32;20113;-79
2023/07/19 01:48:25;;;;;;;12.57;2.83;;;;;;;23.72;67.34;97784.72;4363889;32;20163;-79
2023/07/19 01:50:52;;;;;;;12.93;3.08;;;;;;;23.66;67.28;97783.50;4363677;32;20144;-79
2023/07/19 01:53:19;;;;;;;14.00;2.58;;;;;;;23.76;66.80;97751.78;4364011;32;20157;-79
2023/07/19 01:55:45;;;;;;;16.50;2.87;;;;;;;23.92;66.58;97743.97;4364042;32;20152;-79
2023/07/19 01:58:12;;;;;;;10.07;3.35;;;;;;;23.59;68.68;97747.41;4363349;32;20125;-79
2023/07/19 02:00:39;;;;;;;8.93;2.42;;;;;;;23.91;66.29;97759.94;4364002;32;20122;-79
2023/07/19 02:03:06;;;;;;;8.95;2.28;;;;;;;23.93;66.44;97768.53;4363779;32;20108;-79
2023/07/19 02:05:37;;;;;;;13.50;3.17;;;;;;;23.58;67.42;97780.81;4363746;32;20113;-79
2023/07/19 02:08:04;;;;;;;12.27;2.45;;;;;;;22.60;72.76;97784.28;4363734;32;20446;-79
2023/07/19 02:10:31;;;;;;;12.25;3.08;;;;;;;23.43;70.09;97776.22;4363390;32;20421;-79
2023/07/19 02:12:58;;;;;;;10.05;2.70;;;;;;;23.78;68.07;97768.28;4363848;32;20142;-79
2023/07/19 02:15:24;;;;;;;11.65;2.75;;;;;;;23.55;68.99;97764.47;4363749;32;20158;-79
2023/07/19 02:17:51;;;;;;;9.15;2.40;;;;;;;23.74;68.01;97737.97;4363653;32;20152;-79
2023/07/19 02:20:19;;;;;;;8.05;2.33;;;;;;;23.75;67.35;97742.25;4365965;32;20079;-79
2023/07/19 02:22:46;;;;;;;9.30;2.53;;;;;;;23.96;66.13;97768.22;4365709;32;20485;-79
2023/07/19 02:25:13;;;;;;;9.18;2.47;;;;;;;23.72;66.76;97789.97;4365514;32;20402;-79
2023/07/19 02:27:40;;;;;;;13.00;3.00;;;;;;;23.37;68.68;97789.00;4365710;32;20169;-79
2023/07/19 02:30:07;;;;;;;11.65;2.72;;;;;;;23.00;71.12;97767.31;4365784;32;20118;-79
2023/07/19 02:32:35;;;;;;;12.15;2.65;;;;;;;22.84;72.29;97749.53;4365350;32;20142;-79
2023/07/19 02:35:02;;;;;;;12.00;3.05;;;;;;;22.89;71.81;97757.84;4365778;32;20091;-79
2023/07/19 02:37:29;;;;;;;9.57;2.30;;;;;;;22.87;72.08;97783.47;4365658;32;20218;-79
2023/07/19 02:39:56;;;;;;;11.77;2.75;;;;;;;22.85;72.42;97769.59;4365466;32;20083;-79
2023/07/19 02:42:23;;;;;;;7.62;2.25;;;;;;;22.47;74.81;97745.19;4365610;32;20103;-79
2023/07/19 02:44:50;;;;;;;11.30;2.65;;;;;;;22.50;74.70;97746.69;4365703;32;20116;-79
2023/07/19 02:47:17;;;;;;;11.15;2.72;;;;;;;22.54;75.44;97729.63;4365126;32;20092;-79
2023/07/19 02:49:44;;;;;;;10.43;2.83;;;;;;;22.79;73.12;97720.22;4365564;32;20166;-79
2023/07/19 02:52:11;;;;;;;10.27;2.50;;;;;;;23.13;70.66;97730.91;4365589;32;20484;-79
2023/07/19 02:54:38;;;;;;;9.85;2.90;;;;;;;23.21;70.92;97745.94;4365329;32;20102;-79
2023/07/19 02:57:05;;;;;;;12.88;2.78;;;;;;;23.10;71.71;97728.59;4365689;32;20087;-79
2023/07/19 02:59:32;;;;;;;10.07;2.50;;;;;;;23.00;72.76;97710.25;4364147;32;20139;-79
2023/07/19 03:01:59;;;;;;;12.35;3.15;;;;;;;22.29;75.73;97702.28;4365548;32;20134;-79
2023/07/19 03:04:26;;;;;;;10.15;2.55;;;;;;;22.59;74.49;97702.91;4365616;32;20126;-79
2023/07/19 03:06:52;;;;;;;11.18;2.65;;;;;;;23.11;71.76;97711.81;4365220;32;20164;-79
2023/07/19 03:09:20;;;;;;;11.48;2.60;;;;;;;23.70;68.76;97712.06;4365437;32;20166;-79
2023/07/19 03:11:46;;;;;;;10.98;2.50;;;;;;;24.04;67.23;97720.00;4365178;32;20449;-79
2023/07/19 03:14:13;;;;;;;13.05;2.95;;;;;;;23.30;70.87;97700.28;4365230;32;20090;-79
2023/07/19 03:16:41;;;;;;;9.63;2.40;;;;;;;23.44;69.85;97712.06;4365491;32;20367;-80
2023/07/19 03:19:09;;;;;;;13.82;2.72;;;;;;;23.87;68.21;97727.00;4365344;32;20079;-79
2023/07/19 03:21:39;;;;;;;9.73;2.78;;;;;;;24.11;67.34;97732.38;4365165;32;20486;-79
2023/07/19 03:24:06;;;;;;;11.30;2.80;;;;;;;23.79;68.47;97734.84;4365480;32;20521;-79
2023/07/19 03:26:33;;;;;;;11.90;2.92;;;;;;;23.95;68.30;97719.12;4365401;32;20100;-79
2023/07/19 03:29:00;;;;;;;10.63;2.78;;;;;;;23.57;70.08;97717.72;4364796;32;20109;-79
2023/07/19 03:31:27;;;;;;;11.48;3.20;;;;;;;24.05;67.44;97733.03;4365366;32;20462;-79
2023/07/19 03:33:54;;;;;;;9.93;2.62;;;;;;;24.28;65.60;97735.09;4365320;32;20108;-79
2023/07/19 03:36:21;;;;;;;12.13;2.60;;;;;;;24.02;67.32;97756.22;4364893;32;20434;-79
2023/07/19 03:38:48;;;;;;;12.57;2.78;;;;;;;23.47;70.96;97756.50;4365160;32;20143;-79
2023/07/19 03:41:15;;;;;;;14.20;3.00;;;;;;;23.65;69.61;97760.78;4365350;32;20162;-79
2023/07/19 03:43:42;;;;;;;11.75;2.92;;;;;;;23.80;68.84;97760.22;4364987;32;20106;-79
2023/07/19 03:46:09;;;;;;;10.82;2.70;;;;;;;23.61;69.80;97759.44;4365342;32;20091;-79
2023/07/19 03:48:37;;;;;;;13.65;3.10;;;;;;;23.95;67.50;97780.56;4364736;32;20075;-79
2023/07/19 03:51:04;;;;;;;7.75;2.40;;;;;;;23.44;69.79;97783.97;4365268;32;20150;-79
2023/07/19 03:53:31;;;;;;;13.15;2.72;;;;;;;23.18;71.39;97790.97;4365340;32;20144;-79
2023/07/19 03:55:59;;;;;;;14.27;3.30;;;;;;;22.94;71.94;97784.50;4364862;32;20335;-79
2023/07/19 03:58:27;;;;;;;8.98;3.05;;;;;;;23.14;71.86;97779.94;4365025;32;20084;-79
2023/07/19 04:00:55;;;;;;;12.07;2.67;;;;;;;23.13;71.90;97778.28;4365086;32;20454;-79
2023/07/19 04:03:23;;;;;;;8.73;2.83;;;;;;;23.06;73.24;97779.84;4364964;32;20405;-79
2023/07/19 04:05:51;;;;;;;10.10;2.40;;;;;;;23.43;70.91;97787.59;4364007;32;20105;-80
2023/07/19 04:08:18;;;;;;;15.27;2.80;;;;;;;23.59;70.37;97777.19;4363913;32;20105;-79
2023/07/19 04:10:45;;;;;;;11.93;2.70;;;;;;;24.03;69.11;97766.63;4364700;32;20113;-79
2023/07/19 04:13:13;;;;;;;13.40;2.80;;;;;;;24.38;66.78;97763.00;4363907;32;20119;-80
2023/07/19 04:15:40;;;;;;;11.80;2.83;;;;;;;24.71;65.31;97732.28;4365078;32;20218;-80
2023/07/19 04:18:07;;;;;;;10.80;2.72;;;;;;;25.16;62.35;97752.16;4363503;32;20091;-80
2023/07/19 04:20:36;;;;;;;10.57;2.47;;;;;;;25.91;59.61;97791.59;4365110;32;20090;-80
2023/07/19 04:23:03;;;;;;;11.02;2.47;;;;;;;25.67;59.77;97816.19;4364964;32;20114;-80
2023/07/19 04:25:31;;;;;;;11.82;2.62;;;;;;;25.57;60.76;97797.03;4364734;32;20166;-80
2023/07/19 04:27:58;;;;;;;11.82;2.58;;;;;;;25.44;61.36;97780.88;4365015;32;20516;-80
2023/07/19 04:30:25;;;;;;;11.90;3.00;;;;;;;25.48;61.28;97764.53;4359489;32;144976;-80
2023/07/19 04:32:54;;;;;;;11.32;2.70;;;;;;;25.12;60.85;97753.47;4364737;32;20122;-80
2023/07/19 04:35:22;;;;;;;11.12;3.08;;;;;;;24.89;63.11;97747.97;4364898;32;20118;-80
2023/07/19 04:37:50;;;;;;;8.60;3.03;;;;;;;25.01;61.97;97744.06;4364600;32;20079;-80
2023/07/19 04:40:17;;;;;;;11.35;3.00;;;;;;;24.96;60.77;97733.12;4364460;32;20158;-80
2023/07/19 04:42:44;;;;;;;12.43;3.55;;;;;;;26.26;57.03;97742.72;4364583;32;20158;-80
2023/07/19 04:45:12;;;;;;;12.20;2.83;;;;;;;26.81;54.31;97747.13;4364555;32;20087;-80
2023/07/19 04:47:38;;;;;;;11.15;2.80;;;;;;;27.16;52.90;97756.34;4364830;32;20131;-80
2023/07/19 04:50:09;;;;;;;13.05;2.85;;;;;;;26.91;54.43;97768.91;4363562;32;20098;-80
2023/07/19 04:52:36;;;;;;;9.48;2.67;;;;;;;27.32;53.92;97766.78;4363560;32;20114;-80
2023/07/19 04:55:05;;;;;;;9.82;2.75;;;;;;;27.65;52.43;97774.50;4366088;32;20115;-81
2023/07/19 04:57:32;;;;;;;11.55;2.90;;;;;;;28.99;49.17;97784.06;4365448;32;20462;-81
2023/07/19 04:59:59;;;;;;;9.95;2.37;;;;;;;29.46;48.31;97786.16;4363471;32;20406;-81
2023/07/19 05:02:26;;;;;;;9.20;2.33;;;;;;;29.68;46.85;97789.66;4365561;32;20434;-81
2023/07/19 05:04:53;;;;;;;9.23;2.60;;;;;;;30.05;45.35;97798.28;4365709;32;20104;-81
2023/07/19 05:07:20;;;;;;;12.50;3.12;;;;;;;29.81;44.91;97797.72;4365703;32;20133;-81
2023/07/19 05:09:47;;;;;;;8.85;2.72;;;;;;;30.39;44.27;97800.94;4365585;32;20170;-82
2023/07/19 05:12:14;;;;;;;10.43;2.78;;;;;;;31.21;42.30;97810.72;4365520;32;20113;-81
2023/07/19 05:14:41;;;;;;;10.52;2.72;;;;;;;31.27;41.13;97819.78;4364595;32;20103;-81
2023/07/19 05:17:08;;;;;;;9.20;2.58;;;;;;;31.30;42.08;97817.53;4366436;32;20079;-81
2023/07/19 05:19:35;;;;;;;9.35;2.40;;;;;;;31.17;42.31;97819.31;4366670;32;20137;-80
2023/07/19 05:22:02;;;;;;;12.73;2.70;;;;;;;31.51;42.47;97821.03;4365683;32;20750;-81
2023/07/19 05:24:29;;;;;;;11.68;2.92;;;;;;;31.45;41.88;97819.16;4366472;32;20091;-81
2023/07/19 05:26:56;;;;;;;12.82;2.60;;;;;;;31.85;40.10;97812.84;4365744;32;20091;-80
2023/07/19 05:29:23;;;;;;;9.25;2.50;;;;;;;32.15;39.28;97823.09;4365176;32;20162;-85
2023/07/19 05:31:49;;;;;;;8.82;2.60;;;;;;;31.48;39.95;97824.13;4364554;32;20150;-84
2023/07/19 05:34:16;;;;;;;10.25;2.55;;;;;;;30.55;41.26;97818.44;4364231;32;20083;-84
2023/07/19 05:36:43;;;;;;;11.15;2.67;;;;;;;30.70;41.32;97813.00;4364774;32;20075;-81
2023/07/19 05:39:16;;;;;;;12.80;2.70;;;;;;;30.43;42.10;97796.91;4367972;32;20707;-82
2023/07/19 05:41:44;;;;;;;11.18;2.72;;;;;;;30.72;41.98;97805.63;4541245;27;20179;-80
2023/07/19 05:44:11;;;;;;;10.57;2.28;;;;;;;30.46;41.51;97815.13;4845457;27;20101;-80
2023/07/19 05:46:38;;;;;;;12.13;2.58;;;;;;;31.15;40.78;97816.00;4372348;32;20110;-81
2023/07/19 05:49:05;;;;;;;11.50;2.90;;;;;;;31.42;40.16;97824.91;4366854;32;20118;-81
2023/07/19 05:51:32;;;;;;;10.05;2.75;;;;;;;31.23;40.83;97818.53;4366117;32;20118;-82
2023/07/19 05:53:59;;;;;;;8.52;2.40;;;;;;;31.03;42.68;97813.13;4368491;32;20817;-81
2023/07/19 05:56:26;;;;;;;11.40;2.50;;;;;;;31.68;41.17;97823.06;4368243;32;20150;-80
2023/07/19 05:58:54;;;;;;;11.88;2.70;;;;;;;31.63;41.36;97833.53;4366885;32;20487;-79
2023/07/19 06:01:21;;;;;;;12.10;2.90;;;;;;;32.12;40.32;97823.50;4365984;32;20111;-79
2023/07/19 06:03:51;;;;;;;11.63;2.72;;;;;;;32.63;39.37;97820.09;4365950;32;20166;-80
2023/07/19 06:06:18;;;;;;;10.43;2.62;;;;;;;32.95;40.09;97804.97;4366138;32;20087;-80
2023/07/19 06:08:45;;;;;;;10.20;2.90;;;;;;;32.59;40.82;97766.28;4366573;32;20113;-80
2023/07/19 06:11:12;;;;;;;8.98;2.75;;;;;;;32.81;39.42;97729.37;4366054;32;20159;-80
2023/07/19 06:13:39;;;;;;;12.57;3.15;;;;;;;33.84;37.83;97691.56;4369385;32;20136;-81
2023/07/19 06:16:05;;;;;;;12.35;2.60;;;;;;;33.64;37.85;97687.25;4367198;32;20169;-81
2023/07/19 06:21:47;;;;;;;7.97;2.47;;;;;;;33.35;37.77;97693.28;4377362;32;20082;-80
2023/07/19 06:24:14;;;;;;;8.68;2.47;;;;;;;33.31;36.67;97716.94;4379495;32;20107;-81
2023/07/19 06:26:41;;;;;;;6.93;2.40;;;;;;;32.95;38.06;97733.62;4380457;32;20110;-80
2023/07/19 06:29:08;;;;;;;9.98;2.87;;;;;;;32.73;38.51;97743.00;4484938;27;20083;-80
2023/07/19 06:31:35;;;;;;;8.18;2.60;;;;;;;32.15;40.26;97753.69;4379266;32;20079;-81
2023/07/19 06:34:02;;;;;;;10.35;2.90;;;;;;;31.78;41.28;97755.19;4378277;32;20079;-81
2023/07/19 06:36:29;;;;;;;11.43;2.67;;;;;;;31.29;42.07;97759.09;4379051;32;20071;-80
2023/07/19 06:39:39;;;;;;;12.57;2.53;;;;;;;31.80;42.30;97767.31;4377962;32;20127;-81
2023/07/19 06:42:06;;;;;;;9.85;2.62;;;;;;;32.20;40.22;97757.34;4491131;27;20063;-80
2023/07/19 06:44:34;;;;;;;8.00;2.50;;;;;;;31.29;41.60;97729.75;4379496;32;20054;-79
2023/07/19 06:47:00;;;;;;;11.70;3.05;;;;;;;31.56;40.09;97730.56;4375865;32;20095;-80
2023/07/19 06:49:27;;;;;;;8.45;2.78;;;;;;;30.80;41.95;97714.91;4377235;32;20115;-81
2023/07/19 06:51:54;;;;;;;10.63;3.00;;;;;;;31.15;42.50;97702.25;4376096;32;20119;-79
2023/07/19 06:54:21;;;;;;;10.90;3.22;;;;;;;31.93;41.20;97721.94;4378183;32;20103;-79
2023/07/19 06:56:48;;;;;;;13.18;2.83;;;;;;;33.12;38.57;97746.50;4380081;32;20055;-80
2023/07/19 06:59:15;;;;;;;10.20;3.17;;;;;;;33.26;38.35;97764.06;4388781;27;20184;-79
2023/07/19 07:01:42;;;;;;;10.90;2.85;;;;;;;33.17;37.85;97770.72;4378741;32;20105;-78
2023/07/19 07:04:09;;;;;;;9.80;2.70;;;;;;;32.72;39.72;97763.53;4371353;32;20059;-78
2023/07/19 07:06:36;;;;;;;9.20;2.72;;;;;;;33.32;39.35;97760.53;4374048;32;20088;-78
2023/07/19 07:09:03;;;;;;;12.52;2.95;;;;;;;33.69;38.01;97750.78;4370471;32;20108;-78
2023/07/19 07:11:30;;;;;;;11.40;3.00;;;;;;;34.26;37.92;97772.06;4372438;32;20162;-79
2023/07/19 07:13:57;;;;;;;12.07;2.97;;;;;;;33.47;39.28;97778.97;4374260;32;20055;-79
2023/07/19 07:16:24;;;;;;;9.18;2.62;;;;;;;34.51;37.78;97786.22;4376243;32;20080;-80
2023/07/19 07:18:50;;;;;;;11.00;2.53;;;;;;;34.09;37.64;97788.72;4373054;32;20072;-81
2023/07/19 07:21:17;;;;;;;12.73;3.42;;;;;;;33.98;36.19;97792.13;4367710;32;20178;-82
2023/07/19 07:23:44;;;;;;;10.23;2.90;;;;;;;34.37;36.47;97790.87;4370741;32;20078;-81
2023/07/19 07:26:19;;;;;;;11.10;3.12;;;;;;;34.10;35.91;97789.53;4368299;32;20105;-81
2023/07/19 07:28:47;;;;;;;12.37;3.12;;;;;;;33.94;35.81;97796.28;4369613;32;20103;-82
2023/07/19 07:31:14;;;;;;;12.85;2.92;;;;;;;34.01;36.14;97796.22;4370034;32;20135;-81
2023/07/19 07:33:41;;;;;;;8.65;2.87;;;;;;;34.16;35.31;97805.53;4369984;32;20059;-81
2023/07/19 07:36:08;;;;;;;8.65;2.90;;;;;;;34.09;36.03;97795.94;4369736;32;20103;-81
2023/07/19 07:38:36;;;;;;;10.10;3.30;;;;;;;34.46;34.29;97804.84;4369143;32;20125;-82
2023/07/19 07:41:11;;;;;;;10.25;2.92;;;;;;;34.85;33.73;97806.19;4368676;32;20149;-81
2023/07/19 07:43:38;;;;;;;11.15;3.50;;;;;;;35.18;33.60;97813.81;4367791;32;20587;-82
2023/07/19 07:46:05;;;;;;;8.68;3.30;;;;;;;35.42;32.17;97814.75;4366156;32;20519;-82
2023/07/19 07:48:32;;;;;;;10.93;3.10;;;;;;;36.12;31.36;97804.06;4365415;32;20107;-83
2023/07/19 07:50:59;;;;;;;9.38;3.50;;;;;;;36.40;30.05;97797.19;4368119;32;20452;-84
2023/07/19 07:53:26;;;;;;;9.68;3.70;;;;;;;36.29;28.63;97789.94;4367694;32;20101;-83
2023/07/19 07:55:53;;;;;;;9.07;3.50;;;;;;;34.85;30.10;97786.59;4367687;32;20083;-83
2023/07/19 07:58:21;;;;;;;11.15;3.83;;;;;;;35.30;29.71;97778.97;4367441;32;20071;-83
2023/07/19 08:00:47;;;;;;;9.98;3.45;;;;;;;36.08;27.71;97775.25;4368080;32;20125;-83
2023/07/19 08:03:14;;;;;;;10.65;3.60;;;;;;;36.64;28.20;97781.81;4367520;32;20105;-83
2023/07/19 08:05:41;;;;;;;10.15;3.25;;;;;;;34.99;29.94;97775.53;4366928;32;20075;-84
2023/07/19 08:08:08;;;;;;;11.93;3.50;;;;;;;35.04;30.09;97783.69;4367960;32;20446;-83
2023/07/19 08:10:39;;;;;;;11.30;3.70;;;;;;;34.62;30.27;97765.88;4365681;32;20504;-83
2023/07/19 08:13:08;;;;;;;10.02;3.60;;;;;;;34.05;29.76;97767.97;4365452;32;20457;-83
2023/07/19 08:15:35;;;;;;;9.73;3.53;;;;;;;33.50;30.77;97779.34;4362899;32;20094;-84
2023/07/19 08:18:02;;;;;;;11.12;4.03;;;;;;;33.97;30.80;97774.44;4364439;32;20122;-83
2023/07/19 08:20:29;;;;;;;10.88;3.28;;;;;;;33.43;31.32;97777.78;4364086;32;20445;-84
2023/07/19 08:22:56;;;;;;;7.43;3.10;;;;;;;33.37;32.03;97766.06;4364916;32;20430;-83
2023/07/19 08:25:26;;;;;;;6.93;3.08;;;;;;;32.47;33.46;97766.13;4367022;32;20102;-84
2023/07/19 08:27:54;;;;;;;10.27;3.62;;;;;;;33.46;31.87;97764.75;4367795;32;20375;-84
2023/07/19 08:30:21;;;;;;;7.72;3.40;;;;;;;33.71;31.36;97756.75;4368001;32;20087;-83
2023/07/19 08:32:48;;;;;;;9.50;3.70;;;;;;;33.59;31.95;97761.16;4365654;32;20087;-84
2023/07/19 08:35:16;;;;;;;13.70;3.70;;;;;;;33.75;32.12;97773.19;4366950;32;20095;-83
2023/07/19 08:37:44;;;;;;;9.95;3.60;;;;;;;34.44;31.88;97777.44;4367931;32;20091;-83
2023/07/19 08:40:12;;;;;;;9.30;3.42;;;;;;;34.45;29.98;97771.88;4367844;32;20107;-84
2023/07/19 08:42:39;;;;;;;14.35;3.62;;;;;;;34.47;30.33;97779.69;4367787;32;20098;-83
2023/07/19 08:45:07;;;;;;;10.13;3.50;;;;;;;34.02;32.13;97781.78;4366845;32;20112;-84
2023/07/19 08:47:35;;;;;;;9.13;3.33;;;;;;;34.13;32.19;97787.22;4369458;32;20098;-82
2023/07/19 08:50:07;;;;;;;9.55;3.60;;;;;;;34.28;31.86;97776.16;4367965;32;20850;-82
2023/07/19 08:52:34;;;;;;;10.23;3.45;;;;;;;34.27;31.81;97765.69;4366541;32;20454;-83
2023/07/19 08:55:02;;;;;;;11.18;3.47;;;;;;;34.38;32.31;97776.50;4366093;32;20101;-83
2023/07/19 08:57:29;;;;;;;12.52;3.87;;;;;;;34.27;30.95;97785.25;4366736;32;20107;-82
2023/07/19 08:59:55;;;;;;;8.77;3.40;;;;;;;34.54;31.27;97780.41;4366859;32;20107;-83
2023/07/19 09:02:22;;;;;;;10.57;3.60;;;;;;;34.62;31.35;97780.09;4367036;32;20090;-84
2023/07/19 09:05:10;;;;;;;8.02;3.40;;;;;;;35.25;30.42;97779.66;4366335;32;20080;-84
2023/07/19 09:07:53;;;;;;;9.60;3.72;;;;;;;34.92;30.69;97769.44;4370635;32;20118;-83
2023/07/19 09:10:20;;;;;;;8.90;3.40;;;;;;;35.48;30.50;97778.94;4371945;32;20075;-84
2023/07/19 09:12:47;;;;;;;9.60;4.07;;;;;;;35.67;30.96;97776.16;4365553;32;20442;-84
2023/07/19 09:15:14;;;;;;;10.40;3.62;;;;;;;35.80;30.42;97763.31;4365590;32;20134;-83
2023/07/19 09:17:42;;;;;;;9.38;3.50;;;;;;;35.50;31.63;97768.78;4365484;32;20111;-83
2023/07/19 09:20:10;;;;;;;11.02;3.20;;;;;;;36.61;28.84;97755.41;4365515;32;20434;-83
2023/07/19 09:22:37;;;;;;;8.85;3.45;;;;;;;36.45;29.75;97757.78;4366199;32;20161;-83
2023/07/19 09:25:06;;;;;;;11.85;3.75;;;;;;;36.06;29.75;97758.56;4366518;32;20092;-83
2023/07/19 09:27:33;;;;;;;11.85;3.60;;;;;;;35.32;30.80;97766.16;4367156;32;20107;-83
2023/07/19 09:30:01;;;;;;;9.73;3.60;;;;;;;35.36;30.79;97762.78;4370433;32;20106;-83
2023/07/19 09:32:28;;;;;;;9.73;3.45;;;;;;;34.48;32.46;97759.87;4369556;32;20138;-83
2023/07/19 09:34:57;;;;;;;9.52;3.42;;;;;;;34.80;32.70;97747.09;4369811;32;20480;-83
2023/07/19 09:37:25;;;;;;;11.85;3.30;;;;;;;34.10;33.09;97731.44;4369290;32;20145;-82
2023/07/19 09:39:55;;;;;;;11.38;3.85;;;;;;;33.74;34.23;97724.19;4369548;32;20113;-83
2023/07/19 09:42:24;;;;;;;8.27;3.80;;;;;;;33.27;34.29;97730.94;4369413;32;20091;-83
2023/07/19 09:44:52;;;;;;;10.20;3.30;;;;;;;33.84;33.62;97737.06;4370385;32;20087;-82
2023/07/19 09:47:20;;;;;;;8.25;3.30;;;;;;;33.48;34.08;97727.09;4368645;32;20098;-82
2023/07/19 09:49:55;;;;;;;10.32;3.75;;;;;;;32.67;32.33;97735.84;4368784;32;20166;-82
2023/07/19 09:52:25;;;;;;;9.68;3.20;;;;;;;32.39;32.13;97750.34;4369138;32;20165;-83
2023/07/19 09:54:53;;;;;;;8.95;3.58;;;;;;;32.50;32.97;97768.37;4368676;32;20087;-84
2023/07/19 09:57:23;;;;;;;9.98;3.70;;;;;;;33.12;32.25;97770.56;4368804;32;20091;-83
2023/07/19 09:59:51;;;;;;;8.35;3.22;;;;;;;33.91;31.03;97770.75;4367570;32;20141;-85
2023/07/19 10:02:18;;;;;;;9.77;3.37;;;;;;;34.49;30.20;97770.38;4367277;32;20141;-84
2023/07/19 10:04:47;;;;;;;9.65;3.50;;;;;;;34.74;28.58;97767.56;4367720;32;20101;-85
2023/07/19 10:07:23;;;;;;;9.80;3.67;;;;;;;35.18;28.56;97768.22;4368882;32;20178;-84
2023/07/19 10:10:01;;;;;;;9.73;3.58;;;;;;;34.97;29.13;97756.16;4367789;32;20434;-83
2023/07/19 10:12:28;;;;;;;10.65;3.60;;;;;;;34.51;29.32;97754.88;4369205;32;20162;-84
2023/07/19 10:15:08;;;;;;;8.80;3.10;;;;;;;35.01;29.19;97735.91;4369115;32;20078;-83
2023/07/19 10:17:53;;;;;;;8.05;3.10;;;;;;;33.58;31.04;97732.78;4368652;32;20509;-83
2023/07/19 10:20:35;;;;;;;9.32;3.10;;;;;;;32.96;30.97;97729.09;4368793;32;20113;-84
2023/07/19 10:23:06;;;;;;;8.52;3.47;;;;;;;33.25;30.86;97741.03;4368535;32;20095;-83
2023/07/19 10:25:37;;;;;;;10.38;3.25;;;;;;;34.09;29.81;97745.87;4369189;32;20129;-83
2023/07/19 10:28:09;;;;;;;8.23;3.30;;;;;;;34.91;30.06;97745.53;4373595;32;20095;-83
2023/07/19 10:30:53;;;;;;;10.88;3.70;;;;;;;34.94;29.73;97735.16;4372255;32;20479;-83
2023/07/19 10:33:28;;;;;;;10.25;3.47;;;;;;;34.45;30.84;97723.66;4374866;32;20074;-83
2023/07/19 10:36:05;;;;;;;8.25;3.28;;;;;;;34.64;30.32;97716.38;4372920;32;20079;-83
2023/07/19 10:38:32;;;;;;;10.00;3.45;;;;;;;35.04;29.53;97732.75;4374460;32;20067;-82
2023/07/19 10:41:01;;;;;;;10.90;3.40;;;;;;;34.89;29.95;97728.88;4372488;32;20107;-82
2023/07/19 10:43:29;;;;;;;7.72;3.12;;;;;;;35.46;29.30;97739.97;4367332;32;20113;-79
2023/07/19 10:46:14;;;;;;;;;;;;;;;35.79;28.95;97734.84;4365941;32;20070;-79
2023/07/19 10:48:41;;;;;;;11.00;3.33;;;;;;;35.85;29.20;97754.56;4365493;32;20310;-80
2023/07/19 10:51:09;;;;;;;9.55;3.55;;;;;;;36.49;28.37;97769.72;4365282;32;20133;-79
2023/07/19 10:54:01;;;;;;;8.52;3.30;;;;;;;35.90;28.71;97771.62;4365643;32;20575;-79
2023/07/19 10:56:28;;;;;;;11.63;3.80;;;;;;;36.02;29.95;97774.31;4365648;32;20114;-78
2023/07/19 10:58:59;;;;;;;7.70;3.10;;;;;;;34.69;27.94;97762.09;4364855;32;20091;-78
2023/07/19 11:01:28;;;;;;;8.63;3.37;;;;;;;34.79;28.04;97775.78;4365532;32;20107;-78
2023/07/19 11:04:04;;;;;;;7.75;2.90;;;;;;;34.85;27.67;97778.56;4365338;32;20121;-77
2023/07/19 11:06:33;;;;;;;8.85;3.30;;;;;;;34.34;29.05;97775.25;4365571;32;20101;-77
2023/07/19 11:09:06;;;;;;;8.55;3.75;;;;;;;34.77;28.58;97767.16;4365184;32;20489;-78
2023/07/19 11:11:38;;;;;;;8.70;3.00;;;;;;;34.76;29.33;97749.41;4365130;32;20150;-77
2023/07/19 11:14:05;;;;;;;9.32;3.40;;;;;;;34.02;30.66;97749.66;4364371;32;20087;-77
2023/07/19 11:16:33;;;;;;;9.05;3.30;;;;;;;33.51;31.07;97743.56;4365192;32;20227;-78
2023/07/19 11:19:00;;;;;;;9.40;3.25;;;;;;;33.35;31.67;97723.50;4364963;32;20178;-78
2023/07/19 11:21:27;;;;;;;10.25;3.35;;;;;;;32.91;32.69;97724.44;4365383;32;20502;-78
2023/07/19 11:23:55;;;;;;;9.93;3.47;;;;;;;33.36;32.16;97718.97;4365481;32;20079;-78
2023/07/19 11:26:22;;;;;;;9.48;3.40;;;;;;;32.93;31.78;97727.69;4364961;32;20105;-77
2023/07/19 11:28:53;;;;;;;10.68;3.20;;;;;;;33.01;33.22;97746.16;4363748;32;20107;-77
2023/07/19 11:31:29;;;;;;;9.32;3.22;;;;;;;32.77;33.54;97738.88;4365192;32;20509;-77
2023/07/19 11:34:10;;;;;;;8.10;3.20;;;;;;;33.30;32.23;97746.56;4365048;32;20092;-78
2023/07/19 11:36:45;;;;;;;9.23;3.53;;;;;;;33.53;33.59;97757.50;4365151;32;20102;-78